sensor_id;sensor_type;location;lat;lon;timestamp;temperature;humidity
26270;DHT22;15937;50.612;6.656;2023-11-18T00:02:46;5.70;99.90
26270;DHT22;15937;50.612;6.656;2023-11-18T00:06:48;5.70;99.90
26270;DHT22;15937;50.612;6.656;2023-11-18T00:10:50;5.70;99.90
26270;DHT22;15937;50.612;6.656;2023-11-18T00:14:52;5.70;99.90
26270;DHT22;15937;50.612;6.656;2023-11-18T00:18:54;5.80;99.90
26270;DHT22;15937;50.612;6.656;2023-11-18T00:22:57;5.80;99.90
26270;DHT22;15937;50.612;6.656;2023-11-18T00:26:59;5.80;99.90
26270;DHT22;15937;50.612;6.656;2023-11-18T00:31:00;5.80;99.90
26270;DHT22;15937;50.612;6.656;2023-11-18T00:35:03;5.80;99.90
26270;DHT22;15937;50.612;6.656;2023-11-18T00:39:07;5.90;99.90
26270;DHT22;15937;50.612;6.656;2023-11-18T00:43:10;5.90;99.90
26270;DHT22;15937;50.612;6.656;2023-11-18T00:47:11;5.90;99.90
26270;DHT22;15937;50.612;6.656;2023-11-18T00:51:13;5.80;99.90
26270;DHT22;15937;50.612;6.656;2023-11-18T00:55:15;5.80;99.90
26270;DHT22;15937;50.612;6.656;2023-11-18T00:59:19;5.70;99.90
26270;DHT22;15937;50.612;6.656;2023-11-18T01:03:21;5.70;99.90
26270;DHT22;15937;50.612;6.656;2023-11-18T01:07:24;5.70;99.90
26270;DHT22;15937;50.612;6.656;2023-11-18T01:11:25;5.70;99.90
26270;DHT22;15937;50.612;6.656;2023-11-18T01:15:28;5.70;99.90
26270;DHT22;15937;50.612;6.656;2023-11-18T01:19:30;5.70;99.90
26270;DHT22;15937;50.612;6.656;2023-11-18T01:23:32;5.80;99.90
26270;DHT22;15937;50.612;6.656;2023-11-18T01:27:34;5.80;99.90
26270;DHT22;15937;50.612;6.656;2023-11-18T01:31:35;5.80;99.90
26270;DHT22;15937;50.612;6.656;2023-11-18T01:35:52;5.80;99.90
26270;DHT22;15937;50.612;6.656;2023-11-18T01:39:55;5.80;99.90
26270;DHT22;15937;50.612;6.656;2023-11-18T01:43:57;5.80;99.90
26270;DHT22;15937;50.612;6.656;2023-11-18T01:47:59;5.80;99.90
26270;DHT22;15937;50.612;6.656;2023-11-18T01:52:01;5.70;99.90
26270;DHT22;15937;50.612;6.656;2023-11-18T01:56:04;5.80;99.90
26270;DHT22;15937;50.612;6.656;2023-11-18T02:00:08;5.70;99.90
26270;DHT22;15937;50.612;6.656;2023-11-18T02:04:13;5.70;99.90
26270;DHT22;15937;50.612;6.656;2023-11-18T02:08:15;5.70;99.90
26270;DHT22;15937;50.612;6.656;2023-11-18T02:16:29;5.60;99.90
26270;DHT22;15937;50.612;6.656;2023-11-18T02:20:32;5.70;99.90
26270;DHT22;15937;50.612;6.656;2023-11-18T02:24:34;5.70;99.90
26270;DHT22;15937;50.612;6.656;2023-11-18T02:28:39;5.70;99.90
26270;DHT22;15937;50.612;6.656;2023-11-18T02:33:02;5.70;99.90
26270;DHT22;15937;50.612;6.656;2023-11-18T02:37:07;5.60;99.90
26270;DHT22;15937;50.612;6.656;2023-11-18T02:41:13;5.60;99.90
26270;DHT22;15937;50.612;6.656;2023-11-18T02:45:15;5.60;99.90
26270;DHT22;15937;50.612;6.656;2023-11-18T02:49:19;5.60;99.90
26270;DHT22;15937;50.612;6.656;2023-11-18T02:53:21;5.60;99.90
26270;DHT22;15937;50.612;6.656;2023-11-18T02:57:22;5.50;99.90
26270;DHT22;15937;50.612;6.656;2023-11-18T03:01:24;5.60;99.90
26270;DHT22;15937;50.612;6.656;2023-11-18T03:05:30;5.60;99.90
26270;DHT22;15937;50.612;6.656;2023-11-18T03:09:33;5.60;99.90
26270;DHT22;15937;50.612;6.656;2023-11-18T03:13:37;5.60;99.90
26270;DHT22;15937;50.612;6.656;2023-11-18T03:17:39;5.60;99.90
26270;DHT22;15937;50.612;6.656;2023-11-18T03:21:41;5.60;99.90
26270;DHT22;15937;50.612;6.656;2023-11-18T03:25:45;5.60;99.90
26270;DHT22;15937;50.612;6.656;2023-11-18T03:29:48;5.60;99.90
26270;DHT22;15937;50.612;6.656;2023-11-18T03:33:53;5.60;99.90
26270;DHT22;15937;50.612;6.656;2023-11-18T03:37:55;5.60;99.90
26270;DHT22;15937;50.612;6.656;2023-11-18T03:41:57;5.60;99.90
26270;DHT22;15937;50.612;6.656;2023-11-18T03:45:59;5.60;99.90
26270;DHT22;15937;50.612;6.656;2023-11-18T03:50:01;5.60;99.90
26270;DHT22;15937;50.612;6.656;2023-11-18T03:54:04;5.60;99.90
26270;DHT22;15937;50.612;6.656;2023-11-18T03:58:06;5.60;99.90
26270;DHT22;15937;50.612;6.656;2023-11-18T04:02:10;5.60;99.90
26270;DHT22;15937;50.612;6.656;2023-11-18T04:06:13;5.70;99.90
26270;DHT22;15937;50.612;6.656;2023-11-18T04:10:15;5.70;99.90
26270;DHT22;15937;50.612;6.656;2023-11-18T04:14:19;5.70;99.90
26270;DHT22;15937;50.612;6.656;2023-11-18T04:18:23;5.80;99.90
26270;DHT22;15937;50.612;6.656;2023-11-18T04:22:25;5.60;99.90
26270;DHT22;15937;50.612;6.656;2023-11-18T04:26:27;5.60;99.90
26270;DHT22;15937;50.612;6.656;2023-11-18T04:30:30;5.60;99.90
26270;DHT22;15937;50.612;6.656;2023-11-18T04:34:32;5.60;99.90
26270;DHT22;15937;50.612;6.656;2023-11-18T04:38:37;5.60;99.90
26270;DHT22;15937;50.612;6.656;2023-11-18T04:42:39;5.60;99.90
26270;DHT22;15937;50.612;6.656;2023-11-18T04:46:41;5.50;99.90
26270;DHT22;15937;50.612;6.656;2023-11-18T04:50:44;5.40;99.90
26270;DHT22;15937;50.612;6.656;2023-11-18T04:54:46;5.40;99.90
26270;DHT22;15937;50.612;6.656;2023-11-18T04:58:50;5.40;99.90
26270;DHT22;15937;50.612;6.656;2023-11-18T05:02:53;5.40;99.90
26270;DHT22;15937;50.612;6.656;2023-11-18T05:06:55;5.40;99.90
26270;DHT22;15937;50.612;6.656;2023-11-18T05:10:57;5.40;99.90
26270;DHT22;15937;50.612;6.656;2023-11-18T05:15:00;5.40;99.90
26270;DHT22;15937;50.612;6.656;2023-11-18T05:19:02;5.40;99.90
26270;DHT22;15937;50.612;6.656;2023-11-18T05:23:04;5.40;99.90
26270;DHT22;15937;50.612;6.656;2023-11-18T05:27:06;5.50;99.90
26270;DHT22;15937;50.612;6.656;2023-11-18T05:31:09;5.50;99.90
26270;DHT22;15937;50.612;6.656;2023-11-18T05:35:11;5.40;99.90
26270;DHT22;15937;50.612;6.656;2023-11-18T05:39:14;5.50;99.90
26270;DHT22;15937;50.612;6.656;2023-11-18T05:43:27;5.60;99.90
26270;DHT22;15937;50.612;6.656;2023-11-18T05:47:31;5.60;99.90
26270;DHT22;15937;50.612;6.656;2023-11-18T05:51:34;5.60;99.90
26270;DHT22;15937;50.612;6.656;2023-11-18T05:55:36;5.60;99.90
26270;DHT22;15937;50.612;6.656;2023-11-18T05:59:38;5.60;99.90
26270;DHT22;15937;50.612;6.656;2023-11-18T06:03:42;5.70;99.90
26270;DHT22;15937;50.612;6.656;2023-11-18T06:07:44;5.70;99.90
26270;DHT22;15937;50.612;6.656;2023-11-18T06:11:49;5.80;99.90
26270;DHT22;15937;50.612;6.656;2023-11-18T06:15:52;5.80;99.90
26270;DHT22;15937;50.612;6.656;2023-11-18T06:19:54;5.90;99.90
26270;DHT22;15937;50.612;6.656;2023-11-18T06:24:00;5.90;99.90
26270;DHT22;15937;50.612;6.656;2023-11-18T06:28:03;6.00;99.90
26270;DHT22;15937;50.612;6.656;2023-11-18T06:32:06;6.00;99.90
26270;DHT22;15937;50.612;6.656;2023-11-18T06:40:18;6.10;99.90
26270;DHT22;15937;50.612;6.656;2023-11-18T06:44:22;6.10;99.90
26270;DHT22;15937;50.612;6.656;2023-11-18T06:48:25;6.20;99.90
26270;DHT22;15937;50.612;6.656;2023-11-18T06:52:28;6.20;99.90
26270;DHT22;15937;50.612;6.656;2023-11-18T06:56:30;6.20;99.90
26270;DHT22;15937;50.612;6.656;2023-11-18T07:00:32;6.30;99.90
26270;DHT22;15937;50.612;6.656;2023-11-18T07:04:35;6.30;99.90
26270;DHT22;15937;50.612;6.656;2023-11-18T07:08:37;6.20;99.90
26270;DHT22;15937;50.612;6.656;2023-11-18T07:12:39;6.30;99.90
26270;DHT22;15937;50.612;6.656;2023-11-18T07:16:42;6.30;99.90
26270;DHT22;15937;50.612;6.656;2023-11-18T07:20:44;6.40;99.90
26270;DHT22;15937;50.612;6.656;2023-11-18T07:24:47;6.40;99.90
26270;DHT22;15937;50.612;6.656;2023-11-18T07:28:50;6.40;99.90
26270;DHT22;15937;50.612;6.656;2023-11-18T07:32:53;6.40;99.90
26270;DHT22;15937;50.612;6.656;2023-11-18T07:36:55;6.30;99.90
26270;DHT22;15937;50.612;6.656;2023-11-18T07:40:57;6.30;99.90
26270;DHT22;15937;50.612;6.656;2023-11-18T07:45:01;6.30;99.90
26270;DHT22;15937;50.612;6.656;2023-11-18T07:49:06;6.30;99.90
26270;DHT22;15937;50.612;6.656;2023-11-18T07:53:08;6.30;99.90
26270;DHT22;15937;50.612;6.656;2023-11-18T07:57:10;6.40;99.90
26270;DHT22;15937;50.612;6.656;2023-11-18T08:01:14;6.40;99.90
26270;DHT22;15937;50.612;6.656;2023-11-18T08:05:17;6.40;99.90
26270;DHT22;15937;50.612;6.656;2023-11-18T08:09:20;6.50;99.90
26270;DHT22;15937;50.612;6.656;2023-11-18T08:13:27;6.60;99.90
26270;DHT22;15937;50.612;6.656;2023-11-18T08:17:29;6.70;99.90
26270;DHT22;15937;50.612;6.656;2023-11-18T08:21:32;6.70;99.90
26270;DHT22;15937;50.612;6.656;2023-11-18T08:25:34;6.80;99.90
26270;DHT22;15937;50.612;6.656;2023-11-18T08:29:38;6.80;99.90
26270;DHT22;15937;50.612;6.656;2023-11-18T08:39:03;7.00;99.90
26270;DHT22;15937;50.612;6.656;2023-11-18T08:43:05;7.00;99.90
26270;DHT22;15937;50.612;6.656;2023-11-18T08:47:09;7.10;99.90
26270;DHT22;15937;50.612;6.656;2023-11-18T08:51:14;7.10;99.90
26270;DHT22;15937;50.612;6.656;2023-11-18T08:55:18;7.20;99.90
26270;DHT22;15937;50.612;6.656;2023-11-18T08:59:24;7.20;99.90
26270;DHT22;15937;50.612;6.656;2023-11-18T09:03:29;7.20;99.90
26270;DHT22;15937;50.612;6.656;2023-11-18T09:07:37;7.30;99.90
26270;DHT22;15937;50.612;6.656;2023-11-18T09:11:39;7.30;99.90
26270;DHT22;15937;50.612;6.656;2023-11-18T09:15:43;7.30;99.90
26270;DHT22;15937;50.612;6.656;2023-11-18T09:19:45;7.40;99.90
26270;DHT22;15937;50.612;6.656;2023-11-18T09:23:48;7.40;99.90
26270;DHT22;15937;50.612;6.656;2023-11-18T09:27:50;7.50;99.90
26270;DHT22;15937;50.612;6.656;2023-11-18T09:31:53;7.60;99.90
26270;DHT22;15937;50.612;6.656;2023-11-18T09:35:56;7.60;99.90
26270;DHT22;15937;50.612;6.656;2023-11-18T09:40:01;7.60;99.90
26270;DHT22;15937;50.612;6.656;2023-11-18T09:44:13;7.70;99.90
26270;DHT22;15937;50.612;6.656;2023-11-18T09:48:18;7.70;99.90
26270;DHT22;15937;50.612;6.656;2023-11-18T09:52:22;7.70;99.90
26270;DHT22;15937;50.612;6.656;2023-11-18T10:00:28;7.70;99.90
26270;DHT22;15937;50.612;6.656;2023-11-18T10:04:34;7.70;99.90
26270;DHT22;15937;50.612;6.656;2023-11-18T10:08:39;7.70;99.90
26270;DHT22;15937;50.612;6.656;2023-11-18T10:12:43;7.70;99.90
26270;DHT22;15937;50.612;6.656;2023-11-18T10:16:53;7.70;99.90
26270;DHT22;15937;50.612;6.656;2023-11-18T10:20:55;7.70;99.90
26270;DHT22;15937;50.612;6.656;2023-11-18T10:24:58;7.70;99.90
26270;DHT22;15937;50.612;6.656;2023-11-18T10:29:03;7.70;99.90
26270;DHT22;15937;50.612;6.656;2023-11-18T10:33:10;7.70;99.90
26270;DHT22;15937;50.612;6.656;2023-11-18T10:37:13;7.70;99.90
26270;DHT22;15937;50.612;6.656;2023-11-18T10:41:15;7.80;99.90
26270;DHT22;15937;50.612;6.656;2023-11-18T10:45:24;7.80;99.90
26270;DHT22;15937;50.612;6.656;2023-11-18T10:49:29;7.80;99.90
26270;DHT22;15937;50.612;6.656;2023-11-18T10:53:46;7.80;99.90
26270;DHT22;15937;50.612;6.656;2023-11-18T10:58:02;7.70;99.90
26270;DHT22;15937;50.612;6.656;2023-11-18T11:02:29;7.70;99.90
26270;DHT22;15937;50.612;6.656;2023-11-18T11:07:02;7.70;99.90
26270;DHT22;15937;50.612;6.656;2023-11-18T11:11:08;7.60;99.90
26270;DHT22;15937;50.612;6.656;2023-11-18T11:15:18;7.60;99.90
26270;DHT22;15937;50.612;6.656;2023-11-18T11:19:35;7.60;99.90
26270;DHT22;15937;50.612;6.656;2023-11-18T11:23:54;7.60;99.90
26270;DHT22;15937;50.612;6.656;2023-11-18T11:28:16;7.60;99.90
26270;DHT22;15937;50.612;6.656;2023-11-18T11:32:35;7.50;99.90
26270;DHT22;15937;50.612;6.656;2023-11-18T11:36:47;7.60;99.90
26270;DHT22;15937;50.612;6.656;2023-11-18T11:40:54;7.60;99.90
26270;DHT22;15937;50.612;6.656;2023-11-18T11:44:57;7.60;99.90
26270;DHT22;15937;50.612;6.656;2023-11-18T11:49:04;7.60;99.90
26270;DHT22;15937;50.612;6.656;2023-11-18T11:53:26;7.50;99.90
26270;DHT22;15937;50.612;6.656;2023-11-18T11:57:28;7.60;99.90
26270;DHT22;15937;50.612;6.656;2023-11-18T12:01:39;7.60;99.90
26270;DHT22;15937;50.612;6.656;2023-11-18T12:05:49;7.60;99.90
26270;DHT22;15937;50.612;6.656;2023-11-18T12:09:58;7.60;99.90
26270;DHT22;15937;50.612;6.656;2023-11-18T12:14:08;7.60;99.90
26270;DHT22;15937;50.612;6.656;2023-11-18T12:18:33;7.60;99.90
26270;DHT22;15937;50.612;6.656;2023-11-18T12:23:04;7.70;99.90
26270;DHT22;15937;50.612;6.656;2023-11-18T12:31:54;7.70;99.90
26270;DHT22;15937;50.612;6.656;2023-11-18T12:40:41;7.70;99.90
26270;DHT22;15937;50.612;6.656;2023-11-18T12:49:37;7.70;99.90
26270;DHT22;15937;50.612;6.656;2023-11-18T12:53:42;7.80;99.90
26270;DHT22;15937;50.612;6.656;2023-11-18T12:57:51;7.80;99.90
26270;DHT22;15937;50.612;6.656;2023-11-18T13:01:56;7.70;99.90
26270;DHT22;15937;50.612;6.656;2023-11-18T13:06:06;7.70;99.90
26270;DHT22;15937;50.612;6.656;2023-11-18T13:10:08;7.70;99.90
26270;DHT22;15937;50.612;6.656;2023-11-18T13:14:10;7.60;99.90
26270;DHT22;15937;50.612;6.656;2023-11-18T13:18:13;7.60;99.90
26270;DHT22;15937;50.612;6.656;2023-11-18T13:22:16;7.50;99.90
26270;DHT22;15937;50.612;6.656;2023-11-18T13:26:20;7.50;99.90
26270;DHT22;15937;50.612;6.656;2023-11-18T13:30:23;7.50;99.90
26270;DHT22;15937;50.612;6.656;2023-11-18T13:34:28;7.40;99.90
26270;DHT22;15937;50.612;6.656;2023-11-18T13:38:32;7.40;99.90
26270;DHT22;15937;50.612;6.656;2023-11-18T13:42:34;7.40;99.90
26270;DHT22;15937;50.612;6.656;2023-11-18T13:46:38;7.40;99.90
26270;DHT22;15937;50.612;6.656;2023-11-18T13:50:42;7.40;99.90
26270;DHT22;15937;50.612;6.656;2023-11-18T13:54:45;7.40;99.90
26270;DHT22;15937;50.612;6.656;2023-11-18T13:58:48;7.40;99.90
26270;DHT22;15937;50.612;6.656;2023-11-18T14:02:51;7.40;99.90
26270;DHT22;15937;50.612;6.656;2023-11-18T14:07:00;7.40;99.90
26270;DHT22;15937;50.612;6.656;2023-11-18T14:11:04;7.40;99.90
26270;DHT22;15937;50.612;6.656;2023-11-18T14:15:16;7.40;99.90
26270;DHT22;15937;50.612;6.656;2023-11-18T14:19:19;7.40;99.90
26270;DHT22;15937;50.612;6.656;2023-11-18T14:23:21;7.50;99.90
26270;DHT22;15937;50.612;6.656;2023-11-18T14:27:25;7.50;99.90
26270;DHT22;15937;50.612;6.656;2023-11-18T14:31:27;7.50;99.90
26270;DHT22;15937;50.612;6.656;2023-11-18T14:35:30;7.50;99.90
26270;DHT22;15937;50.612;6.656;2023-11-18T14:39:32;7.50;99.90
26270;DHT22;15937;50.612;6.656;2023-11-18T14:43:34;7.60;99.90
26270;DHT22;15937;50.612;6.656;2023-11-18T14:47:36;7.60;99.90
26270;DHT22;15937;50.612;6.656;2023-11-18T14:51:38;7.60;99.90
26270;DHT22;15937;50.612;6.656;2023-11-18T14:55:41;7.70;99.90
26270;DHT22;15937;50.612;6.656;2023-11-18T14:59:45;7.70;99.90
26270;DHT22;15937;50.612;6.656;2023-11-18T15:03:47;7.70;99.90
26270;DHT22;15937;50.612;6.656;2023-11-18T15:07:51;7.70;99.90
26270;DHT22;15937;50.612;6.656;2023-11-18T15:11:53;7.70;99.90
26270;DHT22;15937;50.612;6.656;2023-11-18T15:15:56;7.70;99.90
26270;DHT22;15937;50.612;6.656;2023-11-18T15:19:58;7.70;99.90
26270;DHT22;15937;50.612;6.656;2023-11-18T15:24:00;7.70;99.90
26270;DHT22;15937;50.612;6.656;2023-11-18T15:28:03;7.80;99.90
26270;DHT22;15937;50.612;6.656;2023-11-18T15:32:06;7.80;99.90
26270;DHT22;15937;50.612;6.656;2023-11-18T15:36:11;7.90;99.90
26270;DHT22;15937;50.612;6.656;2023-11-18T15:40:14;7.80;99.90
26270;DHT22;15937;50.612;6.656;2023-11-18T15:44:20;7.80;99.90
26270;DHT22;15937;50.612;6.656;2023-11-18T15:48:22;7.90;99.90
26270;DHT22;15937;50.612;6.656;2023-11-18T15:52:24;7.80;99.90
26270;DHT22;15937;50.612;6.656;2023-11-18T15:56:26;7.80;99.90
26270;DHT22;15937;50.612;6.656;2023-11-18T16:00:29;7.80;99.90
26270;DHT22;15937;50.612;6.656;2023-11-18T16:04:31;7.90;99.90
26270;DHT22;15937;50.612;6.656;2023-11-18T16:08:33;7.90;99.90
26270;DHT22;15937;50.612;6.656;2023-11-18T16:12:38;7.90;99.90
26270;DHT22;15937;50.612;6.656;2023-11-18T16:16:40;7.90;99.90
26270;DHT22;15937;50.612;6.656;2023-11-18T16:20:43;8.00;99.90
26270;DHT22;15937;50.612;6.656;2023-11-18T16:24:45;8.00;99.90
26270;DHT22;15937;50.612;6.656;2023-11-18T16:28:49;8.00;99.90
26270;DHT22;15937;50.612;6.656;2023-11-18T16:32:51;8.10;99.90
26270;DHT22;15937;50.612;6.656;2023-11-18T16:36:54;8.10;99.90
26270;DHT22;15937;50.612;6.656;2023-11-18T16:41:01;8.10;99.90
26270;DHT22;15937;50.612;6.656;2023-11-18T16:45:07;8.20;99.90
26270;DHT22;15937;50.612;6.656;2023-11-18T16:49:13;8.20;99.90
26270;DHT22;15937;50.612;6.656;2023-11-18T16:53:18;8.30;99.90
26270;DHT22;15937;50.612;6.656;2023-11-18T16:57:20;8.30;99.90
26270;DHT22;15937;50.612;6.656;2023-11-18T17:01:23;8.30;99.90
26270;DHT22;15937;50.612;6.656;2023-11-18T17:05:28;8.40;99.90
26270;DHT22;15937;50.612;6.656;2023-11-18T17:09:33;8.40;99.90
26270;DHT22;15937;50.612;6.656;2023-11-18T17:13:36;8.50;99.90
26270;DHT22;15937;50.612;6.656;2023-11-18T17:17:43;8.50;99.90
26270;DHT22;15937;50.612;6.656;2023-11-18T17:21:45;8.50;99.90
26270;DHT22;15937;50.612;6.656;2023-11-18T17:25:47;8.50;99.90
26270;DHT22;15937;50.612;6.656;2023-11-18T17:29:49;8.50;99.90
26270;DHT22;15937;50.612;6.656;2023-11-18T17:33:51;8.60;99.90
26270;DHT22;15937;50.612;6.656;2023-11-18T17:37:53;8.50;99.90
26270;DHT22;15937;50.612;6.656;2023-11-18T17:41:55;8.60;99.90
26270;DHT22;15937;50.612;6.656;2023-11-18T17:45:58;8.70;99.90
26270;DHT22;15937;50.612;6.656;2023-11-18T17:50:07;8.70;99.90
26270;DHT22;15937;50.612;6.656;2023-11-18T17:54:11;8.70;99.90
26270;DHT22;15937;50.612;6.656;2023-11-18T17:58:16;8.80;99.90
26270;DHT22;15937;50.612;6.656;2023-11-18T18:02:18;8.80;99.90
26270;DHT22;15937;50.612;6.656;2023-11-18T18:06:20;8.80;99.90
26270;DHT22;15937;50.612;6.656;2023-11-18T18:10:22;8.80;99.90
26270;DHT22;15937;50.612;6.656;2023-11-18T18:14:29;8.90;99.90
26270;DHT22;15937;50.612;6.656;2023-11-18T18:18:31;8.80;99.90
26270;DHT22;15937;50.612;6.656;2023-11-18T18:22:33;8.80;99.90
26270;DHT22;15937;50.612;6.656;2023-11-18T18:26:35;8.80;99.90
26270;DHT22;15937;50.612;6.656;2023-11-18T18:30:37;8.80;99.90
26270;DHT22;15937;50.612;6.656;2023-11-18T18:34:40;8.80;99.90
26270;DHT22;15937;50.612;6.656;2023-11-18T18:38:41;8.90;99.90
26270;DHT22;15937;50.612;6.656;2023-11-18T18:42:44;8.90;99.90
26270;DHT22;15937;50.612;6.656;2023-11-18T18:46:47;9.00;99.90
26270;DHT22;15937;50.612;6.656;2023-11-18T18:50:48;9.10;99.90
26270;DHT22;15937;50.612;6.656;2023-11-18T18:54:52;9.10;99.90
26270;DHT22;15937;50.612;6.656;2023-11-18T18:58:54;9.10;99.90
26270;DHT22;15937;50.612;6.656;2023-11-18T19:02:57;9.20;99.90
26270;DHT22;15937;50.612;6.656;2023-11-18T19:06:59;9.20;99.90
26270;DHT22;15937;50.612;6.656;2023-11-18T19:11:03;9.20;99.90
26270;DHT22;15937;50.612;6.656;2023-11-18T19:15:06;9.30;99.90
26270;DHT22;15937;50.612;6.656;2023-11-18T19:19:09;9.30;99.90
26270;DHT22;15937;50.612;6.656;2023-11-18T19:23:12;9.30;99.90
26270;DHT22;15937;50.612;6.656;2023-11-18T19:27:14;9.30;99.90
26270;DHT22;15937;50.612;6.656;2023-11-18T19:31:16;9.30;99.90
26270;DHT22;15937;50.612;6.656;2023-11-18T19:35:18;9.40;99.90
26270;DHT22;15937;50.612;6.656;2023-11-18T19:39:20;9.40;99.90
26270;DHT22;15937;50.612;6.656;2023-11-18T19:43:22;9.40;99.90
26270;DHT22;15937;50.612;6.656;2023-11-18T19:47:27;9.50;99.90
26270;DHT22;15937;50.612;6.656;2023-11-18T19:51:31;9.50;99.90
26270;DHT22;15937;50.612;6.656;2023-11-18T19:55:33;9.50;99.90
26270;DHT22;15937;50.612;6.656;2023-11-18T19:59:39;9.50;99.90
26270;DHT22;15937;50.612;6.656;2023-11-18T20:03:43;9.50;99.90
26270;DHT22;15937;50.612;6.656;2023-11-18T20:07:45;9.60;99.90
26270;DHT22;15937;50.612;6.656;2023-11-18T20:11:49;9.60;99.90
26270;DHT22;15937;50.612;6.656;2023-11-18T20:15:51;9.60;99.90
26270;DHT22;15937;50.612;6.656;2023-11-18T20:20:01;9.70;99.90
26270;DHT22;15937;50.612;6.656;2023-11-18T20:24:07;9.70;99.90
26270;DHT22;15937;50.612;6.656;2023-11-18T20:28:12;9.70;99.90
26270;DHT22;15937;50.612;6.656;2023-11-18T20:32:14;9.70;99.90
26270;DHT22;15937;50.612;6.656;2023-11-18T20:36:19;9.80;99.90
26270;DHT22;15937;50.612;6.656;2023-11-18T20:40:22;9.90;99.90
26270;DHT22;15937;50.612;6.656;2023-11-18T20:44:24;9.90;99.90
26270;DHT22;15937;50.612;6.656;2023-11-18T20:48:27;10.00;99.90
26270;DHT22;15937;50.612;6.656;2023-11-18T20:52:29;10.00;99.90
26270;DHT22;15937;50.612;6.656;2023-11-18T20:56:34;10.00;99.90
26270;DHT22;15937;50.612;6.656;2023-11-18T21:00:37;10.00;99.90
26270;DHT22;15937;50.612;6.656;2023-11-18T21:04:39;10.00;99.90
26270;DHT22;15937;50.612;6.656;2023-11-18T21:08:41;10.00;99.90
26270;DHT22;15937;50.612;6.656;2023-11-18T21:12:49;10.00;99.90
26270;DHT22;15937;50.612;6.656;2023-11-18T21:16:53;10.10;99.90
26270;DHT22;15937;50.612;6.656;2023-11-18T21:20:55;10.10;99.90
26270;DHT22;15937;50.612;6.656;2023-11-18T21:24:58;10.10;99.90
26270;DHT22;15937;50.612;6.656;2023-11-18T21:29:02;10.20;99.90
26270;DHT22;15937;50.612;6.656;2023-11-18T21:33:04;10.20;99.90
26270;DHT22;15937;50.612;6.656;2023-11-18T21:37:08;10.30;99.90
26270;DHT22;15937;50.612;6.656;2023-11-18T21:41:12;10.30;99.90
26270;DHT22;15937;50.612;6.656;2023-11-18T21:45:14;10.30;99.90
26270;DHT22;15937;50.612;6.656;2023-11-18T21:49:17;10.40;99.90
26270;DHT22;15937;50.612;6.656;2023-11-18T21:53:19;10.40;99.90
26270;DHT22;15937;50.612;6.656;2023-11-18T21:57:27;10.40;99.90
26270;DHT22;15937;50.612;6.656;2023-11-18T22:01:30;10.40;99.90
26270;DHT22;15937;50.612;6.656;2023-11-18T22:05:32;10.40;99.90
26270;DHT22;15937;50.612;6.656;2023-11-18T22:09:34;10.50;99.90
26270;DHT22;15937;50.612;6.656;2023-11-18T22:13:37;10.50;99.90
26270;DHT22;15937;50.612;6.656;2023-11-18T22:17:39;10.50;99.90
26270;DHT22;15937;50.612;6.656;2023-11-18T22:21:42;10.50;99.90
26270;DHT22;15937;50.612;6.656;2023-11-18T22:25:45;10.50;99.90
26270;DHT22;15937;50.612;6.656;2023-11-18T22:29:51;10.50;99.90
26270;DHT22;15937;50.612;6.656;2023-11-18T22:33:53;10.60;99.90
26270;DHT22;15937;50.612;6.656;2023-11-18T22:37:55;10.60;99.90
26270;DHT22;15937;50.612;6.656;2023-11-18T22:41:58;10.70;99.90
26270;DHT22;15937;50.612;6.656;2023-11-18T22:46:00;10.70;99.90
26270;DHT22;15937;50.612;6.656;2023-11-18T22:50:03;10.80;99.90
26270;DHT22;15937;50.612;6.656;2023-11-18T22:54:06;10.80;99.90
26270;DHT22;15937;50.612;6.656;2023-11-18T22:58:13;10.90;99.90
26270;DHT22;15937;50.612;6.656;2023-11-18T23:02:15;11.00;99.90
26270;DHT22;15937;50.612;6.656;2023-11-18T23:06:18;11.00;99.90
26270;DHT22;15937;50.612;6.656;2023-11-18T23:10:23;11.10;99.90
26270;DHT22;15937;50.612;6.656;2023-11-18T23:14:29;11.10;99.90
26270;DHT22;15937;50.612;6.656;2023-11-18T23:18:32;11.10;99.90
26270;DHT22;15937;50.612;6.656;2023-11-18T23:22:34;11.10;99.90
26270;DHT22;15937;50.612;6.656;2023-11-18T23:26:36;11.10;99.90
26270;DHT22;15937;50.612;6.656;2023-11-18T23:30:38;11.10;99.90
26270;DHT22;15937;50.612;6.656;2023-11-18T23:34:40;11.20;99.90
26270;DHT22;15937;50.612;6.656;2023-11-18T23:42:53;11.20;99.90
26270;DHT22;15937;50.612;6.656;2023-11-18T23:46:55;11.20;99.90
26270;DHT22;15937;50.612;6.656;2023-11-18T23:50:58;11.20;99.90
26270;DHT22;15937;50.612;6.656;2023-11-18T23:55:01;11.30;99.90
26270;DHT22;15937;50.612;6.656;2023-11-18T23:59:03;11.30;99.90
